createdAt,value
2023-01-17T00:00:07.819Z,5.43
2023-01-17T00:01:07.752Z,5.39
2023-01-17T00:02:07.828Z,5.44
2023-01-17T00:03:07.737Z,5.43
2023-01-17T00:04:07.870Z,5.39
2023-01-17T00:05:07.706Z,5.43
2023-01-17T00:06:07.838Z,5.30
2023-01-17T00:07:07.886Z,5.23
2023-01-17T00:08:07.855Z,5.25
2023-01-17T00:09:07.637Z,5.18
2023-01-17T00:10:07.604Z,5.18
2023-01-17T00:11:07.776Z,5.15
2023-01-17T00:12:07.748Z,5.18
2023-01-17T00:13:07.983Z,5.14
2023-01-17T00:14:07.541Z,5.14
2023-01-17T00:15:07.711Z,5.28
2023-01-17T00:16:07.584Z,5.21
2023-01-17T00:17:07.483Z,5.15
2023-01-17T00:18:07.498Z,5.17
2023-01-17T00:19:07.499Z,5.14
2023-01-17T00:20:07.483Z,5.23
2023-01-17T00:21:07.524Z,5.20
2023-01-17T00:22:07.486Z,5.12
2023-01-17T00:23:07.451Z,5.25
2023-01-17T00:24:07.397Z,5.14
2023-01-17T00:25:07.402Z,5.08
2023-01-17T00:26:07.380Z,5.11
2023-01-17T00:27:07.354Z,5.20
2023-01-17T00:28:07.388Z,5.26
2023-01-17T00:29:07.536Z,5.23
2023-01-17T00:30:07.353Z,5.25
2023-01-17T00:31:07.371Z,5.26
2023-01-17T00:32:07.320Z,5.26
2023-01-17T00:33:07.299Z,5.26
2023-01-17T00:34:07.313Z,5.26
2023-01-17T00:35:07.297Z,5.29
2023-01-17T00:36:07.237Z,5.38
2023-01-17T00:37:07.230Z,5.32
2023-01-17T00:38:07.233Z,5.30
2023-01-17T00:39:07.183Z,5.36
2023-01-17T00:40:07.239Z,5.36
2023-01-17T00:41:07.209Z,5.36
2023-01-17T00:42:07.443Z,5.38
2023-01-17T00:43:07.143Z,5.38
2023-01-17T00:44:07.152Z,5.35
2023-01-17T00:45:07.116Z,5.36
2023-01-17T00:46:07.145Z,5.33
2023-01-17T00:47:07.092Z,5.39
2023-01-17T00:48:07.084Z,5.44
2023-01-17T00:49:07.073Z,5.43
2023-01-17T00:50:07.055Z,5.41
2023-01-17T00:51:07.113Z,5.44
2023-01-17T00:52:07.222Z,5.47
2023-01-17T00:53:06.998Z,5.51
2023-01-17T00:54:07.029Z,5.44
2023-01-17T00:55:07.047Z,5.44
2023-01-17T00:56:07.005Z,5.56
2023-01-17T00:57:07.013Z,5.50
2023-01-17T00:58:06.960Z,5.43
2023-01-17T00:59:06.920Z,5.50
2023-01-17T01:00:06.958Z,5.50
2023-01-17T01:01:07.070Z,5.41
2023-01-17T01:02:07.257Z,5.50
2023-01-17T01:03:06.876Z,5.41
2023-01-17T01:04:06.915Z,5.44
2023-01-17T01:05:06.856Z,5.47
2023-01-17T01:06:06.880Z,5.44
2023-01-17T01:07:06.848Z,5.51
2023-01-17T01:08:06.821Z,5.48
2023-01-17T01:09:06.808Z,5.41
2023-01-17T01:10:06.829Z,5.43
2023-01-17T01:11:06.765Z,5.39
2023-01-17T01:12:06.776Z,5.41
2023-01-17T01:13:06.974Z,5.36
2023-01-17T01:14:06.787Z,5.38
2023-01-17T01:15:06.720Z,5.39
2023-01-17T01:16:06.747Z,5.32
2023-01-17T01:17:06.715Z,5.28
2023-01-17T01:18:06.704Z,5.33
2023-01-17T01:19:06.722Z,5.35
2023-01-17T01:20:06.680Z,5.35
2023-01-17T01:21:06.682Z,5.26
2023-01-17T01:22:06.677Z,5.28
2023-01-17T01:23:06.711Z,5.17
2023-01-17T01:24:06.596Z,5.17
2023-01-17T01:25:06.609Z,5.21
2023-01-17T01:26:06.637Z,5.17
2023-01-17T01:27:06.584Z,5.14
2023-01-17T01:28:06.568Z,5.14
2023-01-17T01:29:06.525Z,5.12
2023-01-17T01:30:06.534Z,5.12
2023-01-17T01:31:06.516Z,5.08
2023-01-17T01:32:06.524Z,5.11
2023-01-17T01:33:06.528Z,5.08
2023-01-17T01:34:06.729Z,5.04
2023-01-17T01:35:06.472Z,5.08
2023-01-17T01:36:06.448Z,5.04
2023-01-17T01:37:06.464Z,5.07
2023-01-17T01:38:06.431Z,5.04
2023-01-17T01:39:06.422Z,5.08
2023-01-17T01:40:06.398Z,5.08
2023-01-17T01:41:06.370Z,5.05
2023-01-17T01:42:06.586Z,5.05
2023-01-17T01:43:06.553Z,5.05
2023-01-17T01:44:06.337Z,4.94
2023-01-17T01:45:06.320Z,4.94
2023-01-17T01:46:06.313Z,4.97
2023-01-17T01:47:06.305Z,4.93
2023-01-17T01:48:06.492Z,4.86
2023-01-17T01:49:06.283Z,4.90
2023-01-17T01:50:06.301Z,4.82
2023-01-17T01:51:06.325Z,4.89
2023-01-17T01:52:06.225Z,4.87
2023-01-17T01:53:06.225Z,4.84
2023-01-17T01:54:06.197Z,4.82
2023-01-17T01:55:06.263Z,4.80
2023-01-17T01:56:06.181Z,4.74
2023-01-17T01:57:06.179Z,4.77
2023-01-17T01:58:06.366Z,4.75
2023-01-17T01:59:06.168Z,4.80
2023-01-17T02:00:06.136Z,4.84
2023-01-17T02:01:06.191Z,4.77
2023-01-17T02:02:06.109Z,4.84
2023-01-17T02:03:06.077Z,4.80
2023-01-17T02:04:06.092Z,4.82
2023-01-17T02:05:06.104Z,4.78
2023-01-17T02:06:06.047Z,4.80
2023-01-17T02:07:06.023Z,4.78
2023-01-17T02:08:06.005Z,4.75
2023-01-17T02:09:06.025Z,4.75
2023-01-17T02:10:05.994Z,4.78
2023-01-17T02:11:05.998Z,4.78
2023-01-17T02:12:05.959Z,4.77
2023-01-17T02:13:05.957Z,4.75
2023-01-17T02:14:05.934Z,4.78
2023-01-17T02:15:05.933Z,4.75
2023-01-17T02:16:06.018Z,4.75
2023-01-17T02:17:05.920Z,4.75
2023-01-17T02:18:05.901Z,4.68
2023-01-17T02:19:05.873Z,4.71
2023-01-17T02:20:05.914Z,4.74
2023-01-17T02:21:05.900Z,4.70
2023-01-17T02:22:05.853Z,4.67
2023-01-17T02:23:05.841Z,4.71
2023-01-17T02:24:05.875Z,4.68
2023-01-17T02:25:05.818Z,4.62
2023-01-17T02:26:05.816Z,4.66
2023-01-17T02:27:05.874Z,4.59
2023-01-17T02:28:05.789Z,4.66
2023-01-17T02:29:05.785Z,4.58
2023-01-17T02:30:05.748Z,4.58
2023-01-17T02:31:05.750Z,4.71
2023-01-17T02:32:05.717Z,4.56
2023-01-17T02:33:05.829Z,4.59
2023-01-17T02:34:05.704Z,4.59
2023-01-17T02:35:05.683Z,4.58
2023-01-17T02:36:05.683Z,4.58
2023-01-17T02:37:05.626Z,4.52
2023-01-17T02:38:05.662Z,4.56
2023-01-17T02:39:05.652Z,4.56
2023-01-17T02:40:05.606Z,4.55
2023-01-17T02:41:05.591Z,4.56
2023-01-17T02:42:05.596Z,4.48
2023-01-17T02:43:05.641Z,4.45
2023-01-17T02:44:05.560Z,4.48
2023-01-17T02:45:05.539Z,4.50
2023-01-17T02:46:05.563Z,4.40
2023-01-17T02:47:05.727Z,4.42
2023-01-17T02:48:05.499Z,4.42
2023-01-17T02:49:05.465Z,4.28
2023-01-17T02:50:05.474Z,4.35
2023-01-17T02:51:05.453Z,4.34
2023-01-17T02:52:05.465Z,4.30
2023-01-17T02:53:05.698Z,4.31
2023-01-17T02:54:05.440Z,4.23
2023-01-17T02:55:05.398Z,4.30
2023-01-17T02:56:05.396Z,4.30
2023-01-17T02:57:05.570Z,4.31
2023-01-17T02:58:05.564Z,4.20
2023-01-17T02:59:05.402Z,4.31
2023-01-17T03:00:05.337Z,4.26
2023-01-17T03:01:05.403Z,4.32
2023-01-17T03:02:05.553Z,4.34
2023-01-17T03:03:05.330Z,4.30
2023-01-17T03:04:05.278Z,4.34
2023-01-17T03:05:05.259Z,4.31
2023-01-17T03:06:05.284Z,4.31
2023-01-17T03:07:05.234Z,4.30
2023-01-17T03:08:05.260Z,4.34
2023-01-17T03:09:05.229Z,4.35
2023-01-17T03:10:05.184Z,4.34
2023-01-17T03:11:05.206Z,4.37
2023-01-17T03:12:05.161Z,4.41
2023-01-17T03:13:05.132Z,4.35
2023-01-17T03:14:05.142Z,4.38
2023-01-17T03:15:05.139Z,4.44
2023-01-17T03:16:05.115Z,4.41
2023-01-17T03:17:05.077Z,4.45
2023-01-17T03:18:05.078Z,4.42
2023-01-17T03:19:05.046Z,4.44
2023-01-17T03:20:05.103Z,4.48
2023-01-17T03:21:05.052Z,4.44
2023-01-17T03:22:05.068Z,4.38
2023-01-17T03:23:05.056Z,4.31
2023-01-17T03:24:05.006Z,4.35
2023-01-17T03:25:04.990Z,4.37
2023-01-17T03:26:04.987Z,4.34
2023-01-17T03:27:04.973Z,4.40
2023-01-17T03:28:04.950Z,4.41
2023-01-17T03:29:04.960Z,4.34
2023-01-17T03:30:04.897Z,4.44
2023-01-17T03:31:05.179Z,4.42
2023-01-17T03:32:04.877Z,4.38
2023-01-17T03:33:04.909Z,4.35
2023-01-17T03:34:04.919Z,4.38
2023-01-17T03:35:04.885Z,4.45
2023-01-17T03:36:04.868Z,4.41
2023-01-17T03:37:04.842Z,4.40
2023-01-17T03:38:04.827Z,4.28
2023-01-17T03:39:04.792Z,4.37
2023-01-17T03:40:04.765Z,4.32
2023-01-17T03:41:04.756Z,4.38
2023-01-17T03:42:04.749Z,4.37
2023-01-17T03:43:04.738Z,4.26
2023-01-17T03:44:04.744Z,4.30
2023-01-17T03:45:04.761Z,4.22
2023-01-17T03:46:04.765Z,4.24
2023-01-17T03:47:04.703Z,4.22
2023-01-17T03:48:04.880Z,4.22
2023-01-17T03:49:04.656Z,4.20
2023-01-17T03:50:04.671Z,4.22
2023-01-17T03:51:04.666Z,4.22
2023-01-17T03:52:04.633Z,4.24
2023-01-17T03:53:04.615Z,4.20
2023-01-17T03:54:04.583Z,4.14
2023-01-17T03:55:04.592Z,4.30
2023-01-17T03:56:04.566Z,4.12
2023-01-17T03:57:04.584Z,4.12
2023-01-17T03:58:04.529Z,4.16
2023-01-17T03:59:04.731Z,4.13
2023-01-17T04:00:04.526Z,4.20
2023-01-17T04:01:04.670Z,4.14
2023-01-17T04:02:04.634Z,4.20
2023-01-17T04:03:04.508Z,4.14
2023-01-17T04:04:04.444Z,4.16
2023-01-17T04:05:04.438Z,4.24
2023-01-17T04:06:04.410Z,4.24
2023-01-17T04:07:04.610Z,4.24
2023-01-17T04:08:04.390Z,4.23
2023-01-17T04:09:04.376Z,4.26
2023-01-17T04:10:04.374Z,4.24
2023-01-17T04:11:04.341Z,4.22
2023-01-17T04:12:04.388Z,4.31
2023-01-17T04:13:04.545Z,4.23
2023-01-17T04:14:04.514Z,4.24
2023-01-17T04:15:04.299Z,4.17
2023-01-17T04:16:04.326Z,4.22
2023-01-17T04:17:04.288Z,4.23
2023-01-17T04:18:04.252Z,4.31
2023-01-17T04:19:04.254Z,4.31
2023-01-17T04:20:04.260Z,4.20
2023-01-17T04:21:04.422Z,4.22
2023-01-17T04:22:04.421Z,4.28
2023-01-17T04:23:04.178Z,4.24
2023-01-17T04:24:04.184Z,4.19
2023-01-17T04:25:04.170Z,4.22
2023-01-17T04:26:04.153Z,4.22
2023-01-17T04:27:04.127Z,4.20
2023-01-17T04:28:04.119Z,4.22
2023-01-17T04:29:04.138Z,4.24
2023-01-17T04:30:04.097Z,4.23
2023-01-17T04:31:04.162Z,4.24
2023-01-17T04:32:04.070Z,4.20
2023-01-17T04:33:04.080Z,4.20
2023-01-17T04:34:04.055Z,4.28
2023-01-17T04:35:04.046Z,4.16
2023-01-17T04:36:04.012Z,4.20
2023-01-17T04:37:04.006Z,4.16
2023-01-17T04:38:03.968Z,4.13
2023-01-17T04:39:04.020Z,4.04
2023-01-17T04:40:03.967Z,4.12
2023-01-17T04:41:04.149Z,4.13
2023-01-17T04:42:03.939Z,4.13
2023-01-17T04:43:03.928Z,4.16
2023-01-17T04:44:03.925Z,4.19
2023-01-17T04:45:03.911Z,4.19
2023-01-17T04:46:04.124Z,4.13
2023-01-17T04:47:03.904Z,4.16
2023-01-17T04:48:03.868Z,4.06
2023-01-17T04:49:03.824Z,4.14
2023-01-17T04:50:03.846Z,4.12
2023-01-17T04:51:03.860Z,4.12
2023-01-17T04:52:03.777Z,4.12
2023-01-17T04:53:03.767Z,4.05
2023-01-17T04:54:03.772Z,4.04
2023-01-17T04:55:03.736Z,4.10
2023-01-17T04:56:03.769Z,4.04
2023-01-17T04:57:03.829Z,3.99
2023-01-17T04:58:03.880Z,4.04
2023-01-17T04:59:03.688Z,4.06
2023-01-17T05:00:03.686Z,3.96
2023-01-17T05:01:03.971Z,3.94
2023-01-17T05:02:03.740Z,3.95
2023-01-17T05:03:03.744Z,3.91
2023-01-17T05:04:03.639Z,3.95
2023-01-17T05:05:03.638Z,3.87
2023-01-17T05:06:03.617Z,3.88
2023-01-17T05:07:03.744Z,3.87
2023-01-17T05:08:03.683Z,3.86
2023-01-17T05:09:03.612Z,3.86
2023-01-17T05:10:03.625Z,3.92
2023-01-17T05:11:03.548Z,3.88
2023-01-17T05:12:03.628Z,3.86
2023-01-17T05:13:03.515Z,3.86
2023-01-17T05:14:03.520Z,3.81
2023-01-17T05:15:03.457Z,3.91
2023-01-17T05:16:03.501Z,3.92
2023-01-17T05:17:03.471Z,3.94
2023-01-17T05:18:03.440Z,3.87
2023-01-17T05:19:03.445Z,3.87
2023-01-17T05:20:03.831Z,3.87
2023-01-17T05:21:03.364Z,3.94
2023-01-17T05:22:03.417Z,3.92
2023-01-17T05:23:03.368Z,4.08
2023-01-17T05:24:03.338Z,3.99
2023-01-17T05:25:03.314Z,4.08
2023-01-17T05:26:03.316Z,4.12
2023-01-17T05:27:03.370Z,4.13
2023-01-17T05:28:03.303Z,4.14
2023-01-17T05:29:03.302Z,4.13
2023-01-17T05:30:03.260Z,4.10
2023-01-17T05:31:03.274Z,4.13
2023-01-17T05:32:03.220Z,4.10
2023-01-17T05:33:03.223Z,4.10
2023-01-17T05:34:03.186Z,4.22
2023-01-17T05:35:03.185Z,4.22
2023-01-17T05:36:03.163Z,4.30
2023-01-17T05:37:03.178Z,4.32
2023-01-17T05:38:03.181Z,4.30
2023-01-17T05:39:03.207Z,4.32
2023-01-17T05:40:03.169Z,4.31
2023-01-17T05:41:03.094Z,4.35
2023-01-17T05:42:03.107Z,4.42
2023-01-17T05:43:03.087Z,4.44
2023-01-17T05:44:03.111Z,4.44
2023-01-17T05:45:03.076Z,4.38
2023-01-17T05:46:03.097Z,4.41
2023-01-17T05:47:03.037Z,4.45
2023-01-17T05:48:03.269Z,4.44
2023-01-17T05:49:02.996Z,4.45
2023-01-17T05:50:03.005Z,4.40
2023-01-17T05:51:02.955Z,4.41
2023-01-17T05:52:02.987Z,4.49
2023-01-17T05:53:03.011Z,4.38
2023-01-17T05:54:02.946Z,4.30
2023-01-17T05:55:02.972Z,4.31
2023-01-17T05:56:02.935Z,4.30
2023-01-17T05:57:02.882Z,4.34
2023-01-17T05:58:02.915Z,4.24
2023-01-17T05:59:02.879Z,4.28
2023-01-17T06:00:02.875Z,4.28
2023-01-17T06:01:02.916Z,4.24
2023-01-17T06:02:02.839Z,4.20
2023-01-17T06:03:02.809Z,4.19
2023-01-17T06:04:02.817Z,4.24
2023-01-17T06:05:03.618Z,4.19
2023-01-17T06:06:03.192Z,4.23
2023-01-17T06:07:02.746Z,4.13
2023-01-17T06:08:02.746Z,4.12
2023-01-17T06:09:02.752Z,4.20
2023-01-17T06:10:02.713Z,4.16
2023-01-17T06:11:02.745Z,4.13
2023-01-17T06:12:02.701Z,4.06
2023-01-17T06:13:02.694Z,4.13
2023-01-17T06:14:02.649Z,4.05
2023-01-17T06:15:02.855Z,4.04
2023-01-17T06:16:02.823Z,4.17
2023-01-17T06:17:02.622Z,4.19
2023-01-17T06:18:02.662Z,4.19
2023-01-17T06:19:02.603Z,4.13
2023-01-17T06:20:02.589Z,4.16
2023-01-17T06:21:02.563Z,4.19
2023-01-17T06:22:02.562Z,4.10
2023-01-17T06:23:02.629Z,4.13
2023-01-17T06:24:04.188Z,4.13
2023-01-17T06:25:02.520Z,4.13
2023-01-17T06:26:02.544Z,4.17
2023-01-17T06:27:02.544Z,4.08
2023-01-17T06:28:02.471Z,4.14
2023-01-17T06:29:02.479Z,4.10
2023-01-17T06:30:02.491Z,4.10
2023-01-17T06:31:02.639Z,4.14
2023-01-17T06:32:02.521Z,4.23
2023-01-17T06:33:02.449Z,4.22
2023-01-17T06:34:02.394Z,4.22
2023-01-17T06:35:02.384Z,4.13
2023-01-17T06:36:02.384Z,4.16
2023-01-17T06:37:02.766Z,4.19
2023-01-17T06:38:02.391Z,4.23
2023-01-17T06:39:02.351Z,4.10
2023-01-17T06:40:02.367Z,4.10
2023-01-17T06:41:02.349Z,4.10
2023-01-17T06:42:02.285Z,4.12
2023-01-17T06:43:02.306Z,4.06
2023-01-17T06:44:02.257Z,4.13
2023-01-17T06:45:02.445Z,4.06
2023-01-17T06:46:02.208Z,4.08
2023-01-17T06:47:02.244Z,4.13
2023-01-17T06:48:02.200Z,4.17
2023-01-17T06:49:02.177Z,4.19
2023-01-17T06:50:02.167Z,4.10
2023-01-17T06:51:02.166Z,4.16
2023-01-17T06:52:02.341Z,4.23
2023-01-17T06:53:02.175Z,4.13
2023-01-17T06:54:02.093Z,4.23
2023-01-17T06:55:02.108Z,4.13
2023-01-17T06:56:02.109Z,4.10
2023-01-17T06:57:02.075Z,4.02
2023-01-17T06:58:02.069Z,4.05
2023-01-17T06:59:02.129Z,4.06
2023-01-17T07:00:02.201Z,4.02
2023-01-17T07:01:02.152Z,3.92
2023-01-17T07:02:02.007Z,3.95
2023-01-17T07:03:01.980Z,3.94
2023-01-17T07:04:02.072Z,3.95
2023-01-17T07:05:01.976Z,3.96
2023-01-17T07:06:01.967Z,3.87
2023-01-17T07:07:01.951Z,3.84
2023-01-17T07:08:01.966Z,3.84
2023-01-17T07:09:01.946Z,3.74
2023-01-17T07:10:01.898Z,3.80
2023-01-17T07:11:01.925Z,3.86
2023-01-17T07:12:01.897Z,3.78
2023-01-17T07:13:01.873Z,3.66
2023-01-17T07:14:01.965Z,3.76
2023-01-17T07:15:01.905Z,3.73
2023-01-17T07:16:01.927Z,3.76
2023-01-17T07:17:01.820Z,3.77
2023-01-17T07:18:01.770Z,3.76
2023-01-17T07:19:01.787Z,3.77
2023-01-17T07:20:01.782Z,3.83
2023-01-17T07:21:01.741Z,3.76
2023-01-17T07:22:01.749Z,3.78
2023-01-17T07:23:01.720Z,3.80
2023-01-17T07:24:01.867Z,3.86
2023-01-17T07:25:01.689Z,3.83
2023-01-17T07:26:01.680Z,3.86
2023-01-17T07:27:01.699Z,3.83
2023-01-17T07:28:01.667Z,3.88
2023-01-17T07:29:01.642Z,3.76
2023-01-17T07:30:01.637Z,3.78
2023-01-17T07:31:01.701Z,3.86
2023-01-17T07:32:01.577Z,3.92
2023-01-17T07:33:01.588Z,3.76
2023-01-17T07:34:01.553Z,3.80
2023-01-17T07:35:01.556Z,3.76
2023-01-17T07:36:01.717Z,3.70
2023-01-17T07:37:01.548Z,3.88
2023-01-17T07:38:01.502Z,3.87
2023-01-17T07:39:01.496Z,4.04
2023-01-17T07:40:01.476Z,4.20
2023-01-17T07:41:01.479Z,4.20
2023-01-17T07:42:01.467Z,4.34
2023-01-17T07:43:01.437Z,4.44
2023-01-17T07:44:01.418Z,4.55
2023-01-17T07:45:01.397Z,4.62
2023-01-17T07:46:02.372Z,4.87
2023-01-17T07:47:01.405Z,4.89
2023-01-17T07:48:01.359Z,4.96
2023-01-17T07:49:01.335Z,5.07
2023-01-17T07:50:01.325Z,5.15
2023-01-17T07:51:01.544Z,5.23
2023-01-17T07:52:01.295Z,5.35
2023-01-17T07:53:01.300Z,5.44
2023-01-17T07:54:01.427Z,5.36
2023-01-17T07:55:01.261Z,5.50
2023-01-17T07:56:01.235Z,5.66
2023-01-17T07:57:01.246Z,5.75
2023-01-17T07:58:02.941Z,5.75
2023-01-17T07:59:01.205Z,6.01
2023-01-17T08:00:01.209Z,5.99
2023-01-17T08:01:01.289Z,6.07
2023-01-17T08:02:01.371Z,6.16
2023-01-17T08:03:01.230Z,6.24
2023-01-17T08:04:01.219Z,6.27
2023-01-17T08:05:01.143Z,6.36
2023-01-17T08:06:01.119Z,6.44
2023-01-17T08:07:01.113Z,6.49
2023-01-17T08:08:01.085Z,6.54
2023-01-17T08:09:01.071Z,6.57
2023-01-17T08:10:01.081Z,6.59
2023-01-17T08:11:01.056Z,6.54
2023-01-17T08:12:01.043Z,6.69
2023-01-17T08:13:01.047Z,6.72
2023-01-17T08:14:01.013Z,6.77
2023-01-17T08:15:01.006Z,6.88
2023-01-17T08:16:01.006Z,6.74
2023-01-17T08:17:00.985Z,6.54
2023-01-17T08:18:01.007Z,6.42
2023-01-17T08:19:00.985Z,6.22
2023-01-17T08:20:00.944Z,6.01
2023-01-17T08:21:00.944Z,5.91
2023-01-17T08:22:00.930Z,5.84
2023-01-17T08:23:00.951Z,5.86
2023-01-17T08:24:00.895Z,5.89
2023-01-17T08:25:00.892Z,6.09
2023-01-17T08:26:00.887Z,6.30
2023-01-17T08:27:01.055Z,7.00
2023-01-17T08:28:00.854Z,8.06
2023-01-17T08:29:00.931Z,8.78
2023-01-17T08:30:00.845Z,9.58
2023-01-17T08:31:00.824Z,10.15
2023-01-17T08:32:00.808Z,10.28
2023-01-17T08:33:00.791Z,10.48
2023-01-17T08:34:00.796Z,10.40
2023-01-17T08:35:00.857Z,9.83
2023-01-17T08:36:00.773Z,9.10
2023-01-17T08:37:00.776Z,8.56
2023-01-17T08:38:00.769Z,8.24
2023-01-17T08:39:00.733Z,8.06
2023-01-17T08:40:00.744Z,7.47
2023-01-17T08:41:00.724Z,7.85
2023-01-17T08:42:00.916Z,8.61
2023-01-17T08:43:00.704Z,9.28
2023-01-17T08:44:00.682Z,9.36
2023-01-17T08:45:00.876Z,9.40
2023-01-17T08:46:00.826Z,9.86
2023-01-17T08:47:00.656Z,10.17
2023-01-17T08:48:00.670Z,10.40
2023-01-17T08:49:00.868Z,10.75
2023-01-17T08:50:00.630Z,11.04
2023-01-17T08:51:00.678Z,11.18
2023-01-17T08:52:00.664Z,11.29
2023-01-17T08:53:01.330Z,11.51
2023-01-17T08:54:00.615Z,11.68
2023-01-17T08:55:00.654Z,11.86
2023-01-17T08:56:00.589Z,11.84
2023-01-17T08:57:00.803Z,11.95
2023-01-17T08:58:00.581Z,11.77
2023-01-17T08:59:00.551Z,11.50
2023-01-17T09:00:00.551Z,11.62
2023-01-17T09:01:00.710Z,12.03
2023-01-17T09:02:00.740Z,12.36
2023-01-17T09:03:00.532Z,12.45
2023-01-17T09:04:00.630Z,12.54
2023-01-17T09:05:00.513Z,12.65
2023-01-17T09:06:00.520Z,12.64
2023-01-17T09:07:00.549Z,12.35
2023-01-17T09:08:00.522Z,12.40
2023-01-17T09:09:00.520Z,12.61
2023-01-17T09:10:00.532Z,12.86
2023-01-17T09:11:00.485Z,13.15
2023-01-17T09:12:00.484Z,13.23
2023-01-17T09:13:00.672Z,13.25
2023-01-17T09:14:00.672Z,12.94
2023-01-17T09:15:00.467Z,12.54
2023-01-17T09:16:00.470Z,11.84
2023-01-17T09:17:00.461Z,11.50
2023-01-17T09:18:00.469Z,11.59
2023-01-17T09:19:00.468Z,12.06
2023-01-17T09:20:00.449Z,12.09
2023-01-17T09:21:00.445Z,12.35
2023-01-17T09:22:00.438Z,12.37
2023-01-17T09:23:00.651Z,12.37
2023-01-17T09:24:00.817Z,12.25
2023-01-17T09:25:00.416Z,12.27
2023-01-17T09:26:00.428Z,12.46
2023-01-17T09:27:00.421Z,12.27
2023-01-17T09:28:00.441Z,12.03
2023-01-17T09:29:00.416Z,12.13
2023-01-17T09:30:00.449Z,12.06
2023-01-17T09:31:00.466Z,12.02
2023-01-17T09:32:00.396Z,11.95
2023-01-17T09:33:00.415Z,12.12
2023-01-17T09:34:00.387Z,12.15
2023-01-17T09:35:00.433Z,12.06
2023-01-17T09:36:00.387Z,12.13
2023-01-17T09:37:00.377Z,12.18
2023-01-17T09:38:00.406Z,12.27
2023-01-17T09:39:00.877Z,12.04
2023-01-17T09:40:00.388Z,11.94
2023-01-17T09:41:00.378Z,11.44
2023-01-17T09:42:00.363Z,11.48
2023-01-17T09:43:00.359Z,11.50
2023-01-17T09:44:00.357Z,11.33
2023-01-17T09:45:00.371Z,11.33
2023-01-17T09:46:00.404Z,11.08
2023-01-17T09:47:00.421Z,11.11
2023-01-17T09:48:00.359Z,10.99
2023-01-17T09:49:00.346Z,10.81
2023-01-17T09:50:00.346Z,10.61
2023-01-17T09:51:00.336Z,10.38
2023-01-17T09:52:00.347Z,10.40
2023-01-17T09:53:00.333Z,10.51
2023-01-17T09:54:00.339Z,10.64
2023-01-17T09:55:00.377Z,10.69
2023-01-17T09:56:00.535Z,10.61
2023-01-17T09:57:00.318Z,10.71
2023-01-17T09:58:00.324Z,10.87
2023-01-17T09:59:00.328Z,10.97
2023-01-17T10:00:03.564Z,10.44
2023-01-17T10:01:00.643Z,10.53
2023-01-17T10:02:00.454Z,10.82
2023-01-17T10:03:00.351Z,10.96
2023-01-17T10:04:00.351Z,11.23
2023-01-17T10:05:00.399Z,11.05
2023-01-17T10:06:00.310Z,10.96
2023-01-17T10:07:00.311Z,10.64
2023-01-17T10:08:01.985Z,10.94
2023-01-17T10:09:00.317Z,11.05
2023-01-17T10:10:00.325Z,11.15
2023-01-17T10:11:00.330Z,11.17
2023-01-17T10:12:00.327Z,11.07
2023-01-17T10:13:00.314Z,11.08
2023-01-17T10:14:00.308Z,11.02
2023-01-17T10:15:00.517Z,11.05
2023-01-17T10:16:00.969Z,11.23
2023-01-17T10:17:00.332Z,10.94
2023-01-17T10:18:00.718Z,10.89
2023-01-17T10:19:00.313Z,11.11
2023-01-17T10:20:00.316Z,11.26
2023-01-17T10:21:00.748Z,11.08
2023-01-17T10:22:00.335Z,11.27
2023-01-17T10:23:00.296Z,11.33
2023-01-17T10:24:00.318Z,11.26
2023-01-17T10:25:00.494Z,11.37
2023-01-17T10:26:00.300Z,11.33
2023-01-17T10:27:00.327Z,10.99
2023-01-17T10:28:00.291Z,10.81
2023-01-17T10:29:00.320Z,10.26
2023-01-17T10:30:00.291Z,10.49
2023-01-17T10:31:00.318Z,10.60
2023-01-17T10:32:00.299Z,10.81
2023-01-17T10:33:00.311Z,10.96
2023-01-17T10:34:00.303Z,11.12
2023-01-17T10:35:00.320Z,11.26
2023-01-17T10:36:00.320Z,11.35
2023-01-17T10:37:00.344Z,11.37
2023-01-17T10:38:00.318Z,11.47
2023-01-17T10:39:00.290Z,11.57
2023-01-17T10:40:00.504Z,11.72
2023-01-17T10:41:00.291Z,11.40
2023-01-17T10:42:00.273Z,11.14
2023-01-17T10:43:00.309Z,11.47
2023-01-17T10:44:00.485Z,11.65
2023-01-17T10:45:00.289Z,12.10
2023-01-17T10:46:00.314Z,12.29
2023-01-17T10:47:00.269Z,12.37
2023-01-17T10:48:00.270Z,12.27
2023-01-17T10:49:00.277Z,11.36
2023-01-17T10:50:00.281Z,10.48
2023-01-17T10:51:00.281Z,9.80
2023-01-17T10:52:01.484Z,9.23
2023-01-17T10:53:00.249Z,8.67
2023-01-17T10:54:01.881Z,8.31
2023-01-17T10:55:00.241Z,8.05
2023-01-17T10:56:00.234Z,7.88
2023-01-17T10:57:00.236Z,7.76
2023-01-17T10:58:00.231Z,7.75
2023-01-17T10:59:00.244Z,7.75
2023-01-17T11:00:00.223Z,7.83
2023-01-17T11:01:00.281Z,7.88
2023-01-17T11:02:00.274Z,7.88
2023-01-17T11:03:00.259Z,7.79
2023-01-17T11:04:00.217Z,7.61
2023-01-17T11:05:00.203Z,7.69
2023-01-17T11:06:00.177Z,7.87
2023-01-17T11:07:00.187Z,8.00
2023-01-17T11:08:00.192Z,8.10
2023-01-17T11:09:00.179Z,8.27
2023-01-17T11:10:00.179Z,8.33
2023-01-17T11:11:00.146Z,8.24
2023-01-17T11:12:00.125Z,8.38
2023-01-17T11:13:00.128Z,8.28
2023-01-17T11:14:00.140Z,8.51
2023-01-17T11:15:00.160Z,8.74
2023-01-17T11:16:00.202Z,8.70
2023-01-17T11:17:00.103Z,8.56
2023-01-17T11:18:00.108Z,8.48
2023-01-17T11:19:00.095Z,8.60
2023-01-17T11:20:00.090Z,8.44
2023-01-17T11:21:00.076Z,8.31
2023-01-17T11:22:00.065Z,8.24
2023-01-17T11:23:00.049Z,7.95
2023-01-17T11:24:00.049Z,7.97
2023-01-17T11:25:00.040Z,8.00
2023-01-17T11:26:00.022Z,7.90
2023-01-17T11:27:00.023Z,7.88
2023-01-17T11:27:59.995Z,7.48
2023-01-17T11:29:00.029Z,7.33
2023-01-17T11:30:00.006Z,7.29
2023-01-17T11:31:00.064Z,7.42
2023-01-17T11:31:59.969Z,7.67
2023-01-17T11:32:59.997Z,7.88
2023-01-17T11:33:59.989Z,7.85
2023-01-17T11:34:59.994Z,7.77
2023-01-17T11:35:59.968Z,7.69
2023-01-17T11:36:59.987Z,8.10
2023-01-17T11:37:59.959Z,8.28
2023-01-17T11:38:59.951Z,8.30
2023-01-17T11:39:59.978Z,7.98
2023-01-17T11:40:59.920Z,7.54
2023-01-17T11:41:59.898Z,7.11
2023-01-17T11:42:59.877Z,6.97
2023-01-17T11:43:59.929Z,6.81
2023-01-17T11:44:59.865Z,6.75
2023-01-17T11:45:59.928Z,6.77
2023-01-17T11:46:59.989Z,6.74
2023-01-17T11:47:59.839Z,6.77
2023-01-17T11:48:59.875Z,6.78
2023-01-17T11:49:59.829Z,6.66
2023-01-17T11:50:59.823Z,6.62
2023-01-17T11:51:59.785Z,6.59
2023-01-17T11:52:59.783Z,6.54
2023-01-17T11:53:59.771Z,6.42
2023-01-17T11:54:59.769Z,6.44
2023-01-17T11:55:59.757Z,6.46
2023-01-17T11:56:59.740Z,6.45
2023-01-17T11:57:59.755Z,6.42
2023-01-17T11:58:59.721Z,6.27
2023-01-17T11:59:59.710Z,6.39
2023-01-17T12:00:59.761Z,6.42
2023-01-17T12:01:59.710Z,6.38
2023-01-17T12:02:59.703Z,6.45
2023-01-17T12:03:59.701Z,6.49
2023-01-17T12:04:59.722Z,6.41
2023-01-17T12:05:59.657Z,6.36
2023-01-17T12:06:59.860Z,6.44
2023-01-17T12:07:59.669Z,6.39
2023-01-17T12:08:59.648Z,6.33
2023-01-17T12:09:59.612Z,6.28
2023-01-17T12:10:59.598Z,6.26
2023-01-17T12:11:59.597Z,6.26
2023-01-17T12:12:59.578Z,6.30
2023-01-17T12:13:59.584Z,6.20
2023-01-17T12:14:59.744Z,6.28
2023-01-17T12:15:59.780Z,6.33
2023-01-17T12:16:59.556Z,6.35
2023-01-17T12:17:59.520Z,6.27
2023-01-17T12:18:59.557Z,6.31
2023-01-17T12:19:59.497Z,6.27
2023-01-17T12:20:59.483Z,6.28
2023-01-17T12:21:59.714Z,6.16
2023-01-17T12:22:59.450Z,5.98
2023-01-17T12:23:59.449Z,5.98
2023-01-17T12:24:59.450Z,5.90
2023-01-17T12:25:59.471Z,5.90
2023-01-17T12:26:59.406Z,5.91
2023-01-17T12:27:59.462Z,5.89
2023-01-17T12:28:59.399Z,5.90
2023-01-17T12:29:59.404Z,5.80
2023-01-17T12:30:59.430Z,5.86
2023-01-17T12:31:59.361Z,5.79
2023-01-17T12:32:59.392Z,5.69
2023-01-17T12:33:59.344Z,5.72
2023-01-17T12:34:59.588Z,5.69
2023-01-17T12:35:59.312Z,5.62
2023-01-17T12:36:59.297Z,5.61
2023-01-17T12:38:04.999Z,5.59
2023-01-17T12:38:59.271Z,5.61
2023-01-17T12:39:59.268Z,5.69
2023-01-17T12:40:59.255Z,5.64
2023-01-17T12:41:59.243Z,5.62
2023-01-17T12:42:59.218Z,5.53
2023-01-17T12:43:59.206Z,5.50
2023-01-17T12:44:59.210Z,5.54
2023-01-17T12:45:59.222Z,5.65
2023-01-17T12:46:59.403Z,5.54
2023-01-17T12:47:59.158Z,5.57
2023-01-17T12:48:59.204Z,5.56
2023-01-17T12:49:59.157Z,5.54
2023-01-17T12:50:59.469Z,5.65
2023-01-17T12:51:59.126Z,5.66
2023-01-17T12:52:59.110Z,5.73
2023-01-17T12:53:59.094Z,5.72
2023-01-17T12:54:59.099Z,5.71
2023-01-17T12:55:59.142Z,5.76
2023-01-17T12:56:59.092Z,5.66
2023-01-17T12:57:59.045Z,5.75
2023-01-17T12:58:59.042Z,5.79
2023-01-17T12:59:59.032Z,5.80
2023-01-17T13:00:59.149Z,5.75
2023-01-17T13:01:59.194Z,5.72
2023-01-17T13:02:59.002Z,5.65
2023-01-17T13:03:59.007Z,5.61
2023-01-17T13:04:59.268Z,5.72
2023-01-17T13:05:58.938Z,5.71
2023-01-17T13:06:59.030Z,5.71
2023-01-17T13:07:58.916Z,5.66
2023-01-17T13:08:58.976Z,5.73
2023-01-17T13:09:58.939Z,5.62
2023-01-17T13:10:58.904Z,5.66
2023-01-17T13:11:58.884Z,5.62
2023-01-17T13:12:58.884Z,5.62
2023-01-17T13:13:58.857Z,5.68